sensor_id;sensor_type;location;lat;lon;timestamp;pressure;altitude;pressure_sealevel;temperature;humidity
53908;BME280;40469;47.998;7.794;2023-02-11T00:01:09;101057.53;;;-0.73;100.00
53908;BME280;40469;47.998;7.794;2023-02-11T00:03:35;101048.38;;;-0.69;100.00
53908;BME280;40469;47.998;7.794;2023-02-11T00:06:04;101054.09;;;-0.73;100.00
53908;BME280;40469;47.998;7.794;2023-02-11T00:08:29;101050.53;;;-0.75;100.00
53908;BME280;40469;47.998;7.794;2023-02-11T00:10:55;101046.88;;;-0.79;100.00
53908;BME280;40469;47.998;7.794;2023-02-11T00:13:21;101038.13;;;-0.69;100.00
53908;BME280;40469;47.998;7.794;2023-02-11T00:15:47;101045.34;;;-0.64;100.00
53908;BME280;40469;47.998;7.794;2023-02-11T00:18:12;101053.16;;;-0.62;100.00
53908;BME280;40469;47.998;7.794;2023-02-11T00:20:38;101048.72;;;-0.65;100.00
53908;BME280;40469;47.998;7.794;2023-02-11T00:23:03;101057.00;;;-0.69;100.00
53908;BME280;40469;47.998;7.794;2023-02-11T00:25:28;101050.84;;;-0.71;100.00
53908;BME280;40469;47.998;7.794;2023-02-11T00:27:53;101057.31;;;-0.76;100.00
53908;BME280;40469;47.998;7.794;2023-02-11T00:30:18;101060.59;;;-0.79;100.00
53908;BME280;40469;47.998;7.794;2023-02-11T00:32:44;101056.34;;;-0.78;100.00
53908;BME280;40469;47.998;7.794;2023-02-11T00:35:09;101056.34;;;-0.78;100.00
53908;BME280;40469;47.998;7.794;2023-02-11T00:37:34;101056.59;;;-0.87;100.00
53908;BME280;40469;47.998;7.794;2023-02-11T00:40:01;101051.03;;;-0.93;100.00
53908;BME280;40469;47.998;7.794;2023-02-11T00:42:26;101055.91;;;-1.21;100.00
53908;BME280;40469;47.998;7.794;2023-02-11T00:44:51;101047.41;;;-1.20;100.00
53908;BME280;40469;47.998;7.794;2023-02-11T00:47:16;101047.41;;;-1.20;100.00
53908;BME280;40469;47.998;7.794;2023-02-11T00:49:41;101055.66;;;-1.24;100.00
53908;BME280;40469;47.998;7.794;2023-02-11T00:52:07;101053.22;;;-1.35;100.00
53908;BME280;40469;47.998;7.794;2023-02-11T00:54:32;101054.47;;;-1.41;100.00
53908;BME280;40469;47.998;7.794;2023-02-11T00:56:57;101052.81;;;-1.53;100.00
53908;BME280;40469;47.998;7.794;2023-02-11T00:59:22;101055.47;;;-1.51;100.00
53908;BME280;40469;47.998;7.794;2023-02-11T01:01:48;101059.03;;;-1.49;100.00
53908;BME280;40469;47.998;7.794;2023-02-11T01:04:13;101063.28;;;-1.49;100.00
53908;BME280;40469;47.998;7.794;2023-02-11T01:06:38;101067.53;;;-1.50;100.00
53908;BME280;40469;47.998;7.794;2023-02-11T01:09:03;101068.28;;;-1.51;100.00
53908;BME280;40469;47.998;7.794;2023-02-11T01:11:29;101072.66;;;-1.50;100.00
53908;BME280;40469;47.998;7.794;2023-02-11T01:13:54;101064.06;;;-1.50;100.00
53908;BME280;40469;47.998;7.794;2023-02-11T01:16:20;101072.19;;;-1.56;100.00
53908;BME280;40469;47.998;7.794;2023-02-11T01:18:45;101067.63;;;-1.60;100.00
53908;BME280;40469;47.998;7.794;2023-02-11T01:21:11;101069.28;;;-1.61;100.00
53908;BME280;40469;47.998;7.794;2023-02-11T01:23:36;101069.50;;;-1.58;100.00
53908;BME280;40469;47.998;7.794;2023-02-11T01:26:01;101074.63;;;-1.58;100.00
53908;BME280;40469;47.998;7.794;2023-02-11T01:28:27;101070.06;;;-1.62;100.00
53908;BME280;40469;47.998;7.794;2023-02-11T01:30:53;101059.94;;;-1.60;100.00
53908;BME280;40469;47.998;7.794;2023-02-11T01:33:19;101061.06;;;-1.57;100.00
53908;BME280;40469;47.998;7.794;2023-02-11T01:35:45;101058.50;;;-1.57;100.00
53908;BME280;40469;47.998;7.794;2023-02-11T01:38:14;101060.72;;;-1.61;100.00
53908;BME280;40469;47.998;7.794;2023-02-11T01:40:40;101057.03;;;-1.65;100.00
53908;BME280;40469;47.998;7.794;2023-02-11T01:43:10;101062.41;;;-1.62;100.00
53908;BME280;40469;47.998;7.794;2023-02-11T01:48:14;101057.38;;;-1.60;100.00
53908;BME280;40469;47.998;7.794;2023-02-11T01:50:41;101054.81;;;-1.60;100.00
53908;BME280;40469;47.998;7.794;2023-02-11T01:53:07;101052.16;;;-1.62;100.00
53908;BME280;40469;47.998;7.794;2023-02-11T01:55:52;101053.91;;;-1.61;100.00
53908;BME280;40469;47.998;7.794;2023-02-11T01:58:37;101055.81;;;-1.70;100.00
53908;BME280;40469;47.998;7.794;2023-02-11T02:01:03;101045.13;;;-1.76;100.00
53908;BME280;40469;47.998;7.794;2023-02-11T02:03:30;101045.25;;;-1.86;100.00
53908;BME280;40469;47.998;7.794;2023-02-11T02:05:58;101039.78;;;-1.91;100.00
53908;BME280;40469;47.998;7.794;2023-02-11T02:08:30;101041.00;;;-1.86;100.00
53908;BME280;40469;47.998;7.794;2023-02-11T02:11:00;101044.13;;;-1.90;100.00
53908;BME280;40469;47.998;7.794;2023-02-11T02:13:26;101040.56;;;-1.92;100.00
53908;BME280;40469;47.998;7.794;2023-02-11T02:15:56;101037.22;;;-1.91;100.00
53908;BME280;40469;47.998;7.794;2023-02-11T02:21:04;101030.31;;;-2.04;100.00
53908;BME280;40469;47.998;7.794;2023-02-11T02:23:48;101027.19;;;-2.00;100.00
53908;BME280;40469;47.998;7.794;2023-02-11T02:34:18;101003.47;;;-1.85;100.00
53908;BME280;40469;47.998;7.794;2023-02-11T02:36:50;100994.16;;;-1.85;100.00
53908;BME280;40469;47.998;7.794;2023-02-11T02:39:20;101003.72;;;-1.82;100.00
53908;BME280;40469;47.998;7.794;2023-02-11T02:41:47;101000.03;;;-1.86;100.00
53908;BME280;40469;47.998;7.794;2023-02-11T02:44:13;100993.47;;;-1.82;100.00
53908;BME280;40469;47.998;7.794;2023-02-11T02:46:38;100997.59;;;-1.84;100.00
53908;BME280;40469;47.998;7.794;2023-02-11T02:49:05;100990.25;;;-1.80;100.00
53908;BME280;40469;47.998;7.794;2023-02-11T02:56:51;100989.00;;;-1.73;100.00
53908;BME280;40469;47.998;7.794;2023-02-11T03:02:04;100990.44;;;-1.77;100.00
53908;BME280;40469;47.998;7.794;2023-02-11T03:04:36;100983.44;;;-1.79;100.00
53908;BME280;40469;47.998;7.794;2023-02-11T03:07:06;100973.88;;;-1.82;100.00
53908;BME280;40469;47.998;7.794;2023-02-11T03:11:58;100968.97;;;-1.79;100.00
53908;BME280;40469;47.998;7.794;2023-02-11T03:14:24;100980.44;;;-1.74;100.00
53908;BME280;40469;47.998;7.794;2023-02-11T03:16:51;100972.53;;;-1.77;100.00
53908;BME280;40469;47.998;7.794;2023-02-11T03:19:19;100972.97;;;-1.82;100.00
53908;BME280;40469;47.998;7.794;2023-02-11T03:21:47;100963.53;;;-1.83;100.00
53908;BME280;40469;47.998;7.794;2023-02-11T03:24:32;100950.69;;;-1.72;100.00
53908;BME280;40469;47.998;7.794;2023-02-11T03:27:18;100965.53;;;-1.67;100.00
53908;BME280;40469;47.998;7.794;2023-02-11T03:30:00;100959.72;;;-1.65;100.00
53908;BME280;40469;47.998;7.794;2023-02-11T03:32:31;100958.03;;;-1.64;100.00
53908;BME280;40469;47.998;7.794;2023-02-11T03:37:26;100955.41;;;-1.78;100.00
53908;BME280;40469;47.998;7.794;2023-02-11T03:39:54;100953.72;;;-1.77;100.00
53908;BME280;40469;47.998;7.794;2023-02-11T03:42:21;100956.50;;;-1.86;100.00
53908;BME280;40469;47.998;7.794;2023-02-11T03:44:50;100955.16;;;-1.93;100.00
53908;BME280;40469;47.998;7.794;2023-02-11T03:47:17;100955.41;;;-2.01;100.00
53908;BME280;40469;47.998;7.794;2023-02-11T03:49:45;100951.84;;;-2.03;100.00
53908;BME280;40469;47.998;7.794;2023-02-11T03:52:11;100949.50;;;-2.00;100.00
53908;BME280;40469;47.998;7.794;2023-02-11T03:54:38;100949.50;;;-2.00;100.00
53908;BME280;40469;47.998;7.794;2023-02-11T03:57:06;100952.84;;;-2.01;100.00
53908;BME280;40469;47.998;7.794;2023-02-11T03:59:31;100948.63;;;-2.13;100.00
53908;BME280;40469;47.998;7.794;2023-02-11T04:01:56;100942.63;;;-2.13;100.00
53908;BME280;40469;47.998;7.794;2023-02-11T04:04:23;100943.72;;;-2.10;100.00
53908;BME280;40469;47.998;7.794;2023-02-11T04:06:49;100927.69;;;-1.95;100.00
53908;BME280;40469;47.998;7.794;2023-02-11T04:09:14;100929.00;;;-1.77;100.00
53908;BME280;40469;47.998;7.794;2023-02-11T04:11:40;100930.44;;;-1.80;100.00
53908;BME280;40469;47.998;7.794;2023-02-11T04:14:05;100941.94;;;-1.87;100.00
53908;BME280;40469;47.998;7.794;2023-02-11T04:16:30;100948.81;;;-1.86;100.00
53908;BME280;40469;47.998;7.794;2023-02-11T04:18:56;100953.72;;;-1.89;100.00
53908;BME280;40469;47.998;7.794;2023-02-11T04:21:21;100961.09;;;-1.94;100.00
53908;BME280;40469;47.998;7.794;2023-02-11T04:23:47;100958.06;;;-2.00;100.00
53908;BME280;40469;47.998;7.794;2023-02-11T04:26:12;100957.06;;;-2.02;100.00
53908;BME280;40469;47.998;7.794;2023-02-11T04:28:37;100959.97;;;-2.09;100.00
53908;BME280;40469;47.998;7.794;2023-02-11T04:31:03;100961.41;;;-2.13;100.00
53908;BME280;40469;47.998;7.794;2023-02-11T04:33:28;100962.41;;;-2.11;100.00
53908;BME280;40469;47.998;7.794;2023-02-11T04:35:53;100972.66;;;-2.11;100.00
53908;BME280;40469;47.998;7.794;2023-02-11T04:38:18;100979.22;;;-2.14;100.00
53908;BME280;40469;47.998;7.794;2023-02-11T04:40:43;100982.22;;;-2.20;100.00
53908;BME280;40469;47.998;7.794;2023-02-11T04:43:09;100990.53;;;-2.22;100.00
53908;BME280;40469;47.998;7.794;2023-02-11T04:45:34;100995.34;;;-2.27;100.00
53908;BME280;40469;47.998;7.794;2023-02-11T04:48:02;101009.81;;;-2.27;100.00
53908;BME280;40469;47.998;7.794;2023-02-11T04:50:28;101001.09;;;-2.30;100.00
53908;BME280;40469;47.998;7.794;2023-02-11T04:52:53;101001.66;;;-2.34;100.00
53908;BME280;40469;47.998;7.794;2023-02-11T04:55:18;101003.97;;;-2.37;100.00
53908;BME280;40469;47.998;7.794;2023-02-11T04:57:43;101008.88;;;-2.40;100.00
53908;BME280;40469;47.998;7.794;2023-02-11T05:00:09;101014.00;;;-2.40;100.00
53908;BME280;40469;47.998;7.794;2023-02-11T05:02:34;101016.53;;;-2.52;100.00
53908;BME280;40469;47.998;7.794;2023-02-11T05:04:59;101016.28;;;-2.55;100.00
53908;BME280;40469;47.998;7.794;2023-02-11T05:07:25;101020.53;;;-2.55;100.00
53908;BME280;40469;47.998;7.794;2023-02-11T05:09:50;101020.94;;;-2.61;100.00
53908;BME280;40469;47.998;7.794;2023-02-11T05:12:15;101011.47;;;-2.62;100.00
53908;BME280;40469;47.998;7.794;2023-02-11T05:14:40;101009.72;;;-2.63;100.00
53908;BME280;40469;47.998;7.794;2023-02-11T05:17:06;101008.34;;;-2.70;100.00
53908;BME280;40469;47.998;7.794;2023-02-11T05:19:31;100997.81;;;-2.62;100.00
53908;BME280;40469;47.998;7.794;2023-02-11T05:21:56;100997.53;;;-2.43;100.00
53908;BME280;40469;47.998;7.794;2023-02-11T05:24:22;100990.09;;;-2.29;100.00
53908;BME280;40469;47.998;7.794;2023-02-11T05:26:47;100995.22;;;-2.29;100.00
53908;BME280;40469;47.998;7.794;2023-02-11T05:29:13;100986.22;;;-2.23;100.00
53908;BME280;40469;47.998;7.794;2023-02-11T05:31:38;100966.41;;;-2.26;100.00
53908;BME280;40469;47.998;7.794;2023-02-11T05:34:03;100972.88;;;-2.31;100.00
53908;BME280;40469;47.998;7.794;2023-02-11T05:36:28;100955.72;;;-2.32;100.00
53908;BME280;40469;47.998;7.794;2023-02-11T05:38:54;100946.06;;;-2.36;100.00
53908;BME280;40469;47.998;7.794;2023-02-11T05:41:19;100953.63;;;-2.38;100.00
53908;BME280;40469;47.998;7.794;2023-02-11T05:43:46;100957.81;;;-2.38;100.00
53908;BME280;40469;47.998;7.794;2023-02-11T05:46:12;100952.28;;;-2.33;100.00
53908;BME280;40469;47.998;7.794;2023-02-11T05:48:37;100956.84;;;-2.29;100.00
53908;BME280;40469;47.998;7.794;2023-02-11T05:51:02;100967.31;;;-2.25;100.00
53908;BME280;40469;47.998;7.794;2023-02-11T05:53:27;100968.41;;;-2.34;100.00
53908;BME280;40469;47.998;7.794;2023-02-11T05:55:52;100973.53;;;-2.34;100.00
53908;BME280;40469;47.998;7.794;2023-02-11T05:58:18;100976.06;;;-2.34;100.00
53908;BME280;40469;47.998;7.794;2023-02-11T06:00:43;100966.63;;;-2.35;100.00
53908;BME280;40469;47.998;7.794;2023-02-11T06:03:08;100973.53;;;-2.34;100.00
53908;BME280;40469;47.998;7.794;2023-02-11T06:05:33;100959.84;;;-2.34;100.00
53908;BME280;40469;47.998;7.794;2023-02-11T06:07:59;100953.72;;;-2.36;100.00
53908;BME280;40469;47.998;7.794;2023-02-11T06:10:25;100949.94;;;-2.41;100.00
53908;BME280;40469;47.998;7.794;2023-02-11T06:12:50;100947.25;;;-2.43;100.00
53908;BME280;40469;47.998;7.794;2023-02-11T06:15:16;100938.03;;;-2.41;100.00
53908;BME280;40469;47.998;7.794;2023-02-11T06:17:41;100932.34;;;-2.37;100.00
53908;BME280;40469;47.998;7.794;2023-02-11T06:20:06;100941.59;;;-2.39;100.00
53908;BME280;40469;47.998;7.794;2023-02-11T06:22:32;100941.81;;;-2.36;100.00
53908;BME280;40469;47.998;7.794;2023-02-11T06:24:57;100948.63;;;-2.36;100.00
53908;BME280;40469;47.998;7.794;2023-02-11T06:27:23;100941.72;;;-2.37;100.00
53908;BME280;40469;47.998;7.794;2023-02-11T06:29:48;100939.38;;;-2.34;100.00
53908;BME280;40469;47.998;7.794;2023-02-11T06:32:13;100933.47;;;-2.33;100.00
53908;BME280;40469;47.998;7.794;2023-02-11T06:34:39;100933.59;;;-2.32;100.00
53908;BME280;40469;47.998;7.794;2023-02-11T06:37:04;100922.91;;;-2.38;100.00
53908;BME280;40469;47.998;7.794;2023-02-11T06:39:30;100923.16;;;-2.35;100.00
53908;BME280;40469;47.998;7.794;2023-02-11T06:41:56;100924.78;;;-2.35;100.00
53908;BME280;40469;47.998;7.794;2023-02-11T06:44:21;100923.81;;;-2.37;100.00
53908;BME280;40469;47.998;7.794;2023-02-11T06:46:46;100918.34;;;-2.42;100.00
53908;BME280;40469;47.998;7.794;2023-02-11T06:49:11;100924.25;;;-2.43;100.00
53908;BME280;40469;47.998;7.794;2023-02-11T06:51:37;100928.38;;;-2.45;100.00
53908;BME280;40469;47.998;7.794;2023-02-11T06:54:03;100932.47;;;-2.47;100.00
53908;BME280;40469;47.998;7.794;2023-02-11T06:56:29;100924.34;;;-2.53;100.00
53908;BME280;40469;47.998;7.794;2023-02-11T06:58:54;100928.38;;;-2.45;100.00
53908;BME280;40469;47.998;7.794;2023-02-11T07:01:20;100922.00;;;-2.50;100.00
53908;BME280;40469;47.998;7.794;2023-02-11T07:03:46;100916.56;;;-2.55;100.00
53908;BME280;40469;47.998;7.794;2023-02-11T07:06:12;100913.22;;;-2.54;100.00
53908;BME280;40469;47.998;7.794;2023-02-11T07:08:40;100915.56;;;-2.57;100.00
53908;BME280;40469;47.998;7.794;2023-02-11T07:11:10;100921.34;;;-2.48;100.00
53908;BME280;40469;47.998;7.794;2023-02-11T07:13:36;100937.03;;;-2.43;100.00
53908;BME280;40469;47.998;7.794;2023-02-11T07:16:08;100936.25;;;-2.54;100.00
53908;BME280;40469;47.998;7.794;2023-02-11T07:18:34;100944.69;;;-2.55;100.00
53908;BME280;40469;47.998;7.794;2023-02-11T07:21:02;100945.34;;;-2.57;100.00
53908;BME280;40469;47.998;7.794;2023-02-11T07:23:28;100962.69;;;-2.53;100.00
53908;BME280;40469;47.998;7.794;2023-02-11T07:25:53;100965.81;;;-2.45;100.00
53908;BME280;40469;47.998;7.794;2023-02-11T07:28:18;100961.25;;;-2.50;100.00
53908;BME280;40469;47.998;7.794;2023-02-11T07:30:43;100953.22;;;-2.54;100.00
53908;BME280;40469;47.998;7.794;2023-02-11T07:33:08;100974.81;;;-2.51;100.00
53908;BME280;40469;47.998;7.794;2023-02-11T07:35:34;100980.28;;;-2.46;100.00
53908;BME280;40469;47.998;7.794;2023-02-11T07:37:59;100988.50;;;-2.38;100.00
53908;BME280;40469;47.998;7.794;2023-02-11T07:40:24;100984.75;;;-2.43;100.00
53908;BME280;40469;47.998;7.794;2023-02-11T07:42:49;100988.31;;;-2.41;100.00
53908;BME280;40469;47.998;7.794;2023-02-11T07:45:14;101001.66;;;-2.34;100.00
53908;BME280;40469;47.998;7.794;2023-02-11T07:47:40;101004.91;;;-2.36;100.00
53908;BME280;40469;47.998;7.794;2023-02-11T07:50:06;101008.13;;;-2.27;100.00
53908;BME280;40469;47.998;7.794;2023-02-11T07:52:32;101011.84;;;-2.45;100.00
53908;BME280;40469;47.998;7.794;2023-02-11T07:54:57;101024.13;;;-2.41;100.00
53908;BME280;40469;47.998;7.794;2023-02-11T07:57:23;101020.66;;;-2.42;100.00
53908;BME280;40469;47.998;7.794;2023-02-11T07:59:48;101014.81;;;-2.29;100.00
53908;BME280;40469;47.998;7.794;2023-02-11T08:02:13;101024.03;;;-2.19;100.00
53908;BME280;40469;47.998;7.794;2023-02-11T08:04:38;101024.50;;;-2.01;100.00
53908;BME280;40469;47.998;7.794;2023-02-11T08:07:04;101015.50;;;-2.08;100.00
53908;BME280;40469;47.998;7.794;2023-02-11T08:09:29;101017.97;;;-1.74;100.00
53908;BME280;40469;47.998;7.794;2023-02-11T08:11:54;101016.03;;;-1.41;100.00
53908;BME280;40469;47.998;7.794;2023-02-11T08:14:19;101022.22;;;-1.14;100.00
53908;BME280;40469;47.998;7.794;2023-02-11T08:16:45;101015.78;;;-1.21;100.00
53908;BME280;40469;47.998;7.794;2023-02-11T08:19:14;101022.03;;;-1.29;100.00
53908;BME280;40469;47.998;7.794;2023-02-11T08:21:39;101015.78;;;-1.33;100.00
53908;BME280;40469;47.998;7.794;2023-02-11T08:24:04;101022.25;;;-1.26;100.00
53908;BME280;40469;47.998;7.794;2023-02-11T08:26:30;101015.25;;;-1.28;100.00
53908;BME280;40469;47.998;7.794;2023-02-11T08:28:57;101018.16;;;-1.36;100.00
53908;BME280;40469;47.998;7.794;2023-02-11T08:31:23;101016.56;;;-1.22;100.00
53908;BME280;40469;47.998;7.794;2023-02-11T08:33:49;101018.88;;;-1.13;100.00
53908;BME280;40469;47.998;7.794;2023-02-11T08:36:19;101022.88;;;-1.05;100.00
53908;BME280;40469;47.998;7.794;2023-02-11T08:38:45;101024.53;;;-1.05;100.00
53908;BME280;40469;47.998;7.794;2023-02-11T08:41:10;101023.59;;;-0.94;100.00
53908;BME280;40469;47.998;7.794;2023-02-11T08:43:38;101009.41;;;-0.77;100.00
53908;BME280;40469;47.998;7.794;2023-02-11T08:46:05;101012.66;;;-0.41;100.00
53908;BME280;40469;47.998;7.794;2023-02-11T08:48:31;101021.50;;;-0.11;100.00
53908;BME280;40469;47.998;7.794;2023-02-11T08:50:56;101017.81;;;0.11;100.00
53908;BME280;40469;47.998;7.794;2023-02-11T08:53:21;101020.78;;;0.30;100.00
53908;BME280;40469;47.998;7.794;2023-02-11T08:55:50;101010.69;;;0.47;100.00
53908;BME280;40469;47.998;7.794;2023-02-11T08:58:16;101003.63;;;0.71;100.00
53908;BME280;40469;47.998;7.794;2023-02-11T09:00:41;101011.03;;;0.80;100.00
53908;BME280;40469;47.998;7.794;2023-02-11T09:03:09;101013.06;;;0.57;100.00
53908;BME280;40469;47.998;7.794;2023-02-11T09:05:38;101010.06;;;0.51;100.00
53908;BME280;40469;47.998;7.794;2023-02-11T09:08:04;101006.94;;;0.55;100.00
53908;BME280;40469;47.998;7.794;2023-02-11T09:10:29;101003.53;;;0.56;100.00
53908;BME280;40469;47.998;7.794;2023-02-11T09:12:54;101004.66;;;1.01;100.00
53908;BME280;40469;47.998;7.794;2023-02-11T09:15:20;101002.19;;;1.46;100.00
53908;BME280;40469;47.998;7.794;2023-02-11T09:17:45;101007.38;;;2.05;100.00
53908;BME280;40469;47.998;7.794;2023-02-11T09:20:10;101003.66;;;2.78;100.00
53908;BME280;40469;47.998;7.794;2023-02-11T09:22:35;100996.69;;;3.41;100.00
53908;BME280;40469;47.998;7.794;2023-02-11T09:25:01;100993.03;;;3.88;100.00
53908;BME280;40469;47.998;7.794;2023-02-11T09:27:26;100996.00;;;3.96;100.00
53908;BME280;40469;47.998;7.794;2023-02-11T09:29:52;100994.59;;;4.56;100.00
53908;BME280;40469;47.998;7.794;2023-02-11T09:32:17;100986.50;;;4.31;100.00
53908;BME280;40469;47.998;7.794;2023-02-11T09:34:42;100978.34;;;5.16;100.00
53908;BME280;40469;47.998;7.794;2023-02-11T09:37:07;100988.03;;;5.61;100.00
53908;BME280;40469;47.998;7.794;2023-02-11T09:39:33;100992.28;;;5.59;100.00
53908;BME280;40469;47.998;7.794;2023-02-11T09:44:33;100991.50;;;5.21;100.00
53908;BME280;40469;47.998;7.794;2023-02-11T09:47:09;100992.72;;;6.10;100.00
53908;BME280;40469;47.998;7.794;2023-02-11T09:49:43;100986.81;;;5.93;100.00
53908;BME280;40469;47.998;7.794;2023-02-11T09:52:43;100987.72;;;6.36;100.00
53908;BME280;40469;47.998;7.794;2023-02-11T09:55:02;100984.13;;;6.77;100.00
53908;BME280;40469;47.998;7.794;2023-02-11T09:57:31;100978.56;;;6.68;100.00
53908;BME280;40469;47.998;7.794;2023-02-11T09:59:57;100977.22;;;6.55;100.00
53908;BME280;40469;47.998;7.794;2023-02-11T10:02:46;100975.56;;;6.80;100.00
53908;BME280;40469;47.998;7.794;2023-02-11T10:08:07;100974.31;;;6.93;100.00
53908;BME280;40469;47.998;7.794;2023-02-11T10:21:29;100989.66;;;6.41;100.00
53908;BME280;40469;47.998;7.794;2023-02-11T10:23:58;100983.25;;;6.33;100.00
53908;BME280;40469;47.998;7.794;2023-02-11T10:26:25;100982.09;;;6.48;100.00
53908;BME280;40469;47.998;7.794;2023-02-11T10:28:51;100976.63;;;6.62;100.00
53908;BME280;40469;47.998;7.794;2023-02-11T10:31:20;100976.19;;;6.97;100.00
53908;BME280;40469;47.998;7.794;2023-02-11T10:36:15;100972.84;;;6.77;100.00
53908;BME280;40469;47.998;7.794;2023-02-11T10:38:41;100971.00;;;6.97;100.00
53908;BME280;40469;47.998;7.794;2023-02-11T10:41:08;100971.00;;;7.71;100.00
53908;BME280;40469;47.998;7.794;2023-02-11T10:43:34;100967.22;;;7.61;100.00
53908;BME280;40469;47.998;7.794;2023-02-11T10:45:59;100965.41;;;8.11;100.00
53908;BME280;40469;47.998;7.794;2023-02-11T10:53:35;100946.28;;;7.56;100.00
53908;BME280;40469;47.998;7.794;2023-02-11T10:56:00;100941.88;;;8.07;100.00
53908;BME280;40469;47.998;7.794;2023-02-11T10:58:29;100941.16;;;7.85;100.00
53908;BME280;40469;47.998;7.794;2023-02-11T11:00:55;100937.63;;;7.83;100.00
53908;BME280;40469;47.998;7.794;2023-02-11T11:03:35;100931.78;;;7.89;100.00
53908;BME280;40469;47.998;7.794;2023-02-11T11:06:03;100937.19;;;8.24;100.00
53908;BME280;40469;47.998;7.794;2023-02-11T11:08:48;100931.81;;;8.18;100.00
53908;BME280;40469;47.998;7.794;2023-02-11T11:11:15;100939.88;;;7.98;100.00
53908;BME280;40469;47.998;7.794;2023-02-11T11:13:41;100925.22;;;8.56;100.00
53908;BME280;40469;47.998;7.794;2023-02-11T11:16:30;100923.81;;;8.67;100.00
53908;BME280;40469;47.998;7.794;2023-02-11T11:21:33;100921.09;;;8.95;100.00
53908;BME280;40469;47.998;7.794;2023-02-11T11:23:59;100916.53;;;8.86;99.28
53908;BME280;40469;47.998;7.794;2023-02-11T11:26:27;100909.91;;;8.67;100.00
53908;BME280;40469;47.998;7.794;2023-02-11T11:28:59;100909.75;;;8.33;99.72
53908;BME280;40469;47.998;7.794;2023-02-11T11:33:54;100903.50;;;8.56;95.48
53908;BME280;40469;47.998;7.794;2023-02-11T11:36:22;100904.72;;;8.11;97.87
53908;BME280;40469;47.998;7.794;2023-02-11T11:38:51;100891.44;;;8.59;100.00
53908;BME280;40469;47.998;7.794;2023-02-11T11:41:19;100888.63;;;8.82;100.00
53908;BME280;40469;47.998;7.794;2023-02-11T11:46:31;100869.66;;;8.86;100.00
53908;BME280;40469;47.998;7.794;2023-02-11T11:48:59;100874.25;;;8.07;100.00
53908;BME280;40469;47.998;7.794;2023-02-11T11:51:27;100860.44;;;8.09;100.00
53908;BME280;40469;47.998;7.794;2023-02-11T11:53:57;100863.56;;;7.99;100.00
53908;BME280;40469;47.998;7.794;2023-02-11T11:56:34;100869.22;;;8.70;100.00
53908;BME280;40469;47.998;7.794;2023-02-11T11:59:08;100870.28;;;9.44;95.75
53908;BME280;40469;47.998;7.794;2023-02-11T12:04:27;100856.44;;;9.45;100.00
53908;BME280;40469;47.998;7.794;2023-02-11T12:09:50;100829.47;;;10.19;97.65
53908;BME280;40469;47.998;7.794;2023-02-11T12:17:37;100848.75;;;9.51;100.00
53908;BME280;40469;47.998;7.794;2023-02-11T12:32:48;100826.88;;;10.60;87.64
53908;BME280;40469;47.998;7.794;2023-02-11T12:43:22;100821.28;;;10.41;81.48
53908;BME280;40469;47.998;7.794;2023-02-11T12:51:16;100819.06;;;9.82;83.77
53908;BME280;40469;47.998;7.794;2023-02-11T12:53:55;100831.06;;;9.38;86.06
53908;BME280;40469;47.998;7.794;2023-02-11T12:56:28;100827.59;;;9.39;84.85
53908;BME280;40469;47.998;7.794;2023-02-11T12:58:55;100826.06;;;9.47;89.00
53908;BME280;40469;47.998;7.794;2023-02-11T13:01:32;100822.09;;;9.63;82.36
53908;BME280;40469;47.998;7.794;2023-02-11T13:04:05;100821.97;;;9.57;85.32
53908;BME280;40469;47.998;7.794;2023-02-11T13:06:35;100820.59;;;9.36;81.92
53908;BME280;40469;47.998;7.794;2023-02-11T13:09:02;100814.75;;;9.46;82.03
53908;BME280;40469;47.998;7.794;2023-02-11T13:11:29;100820.25;;;9.97;79.91
53908;BME280;40469;47.998;7.794;2023-02-11T13:19:05;100819.19;;;10.69;72.10
53908;BME280;40469;47.998;7.794;2023-02-11T13:24:20;100805.56;;;10.84;68.56
53908;BME280;40469;47.998;7.794;2023-02-11T13:27:00;100809.22;;;10.48;76.12
53908;BME280;40469;47.998;7.794;2023-02-11T13:32:08;100812.16;;;9.83;84.71
53908;BME280;40469;47.998;7.794;2023-02-11T13:37:05;100811.53;;;9.95;80.50
53908;BME280;40469;47.998;7.794;2023-02-11T13:39:36;100808.66;;;9.46;85.75
53908;BME280;40469;47.998;7.794;2023-02-11T13:42:02;100806.13;;;9.49;83.43
53908;BME280;40469;47.998;7.794;2023-02-11T13:44:28;100800.19;;;9.56;86.89
53908;BME280;40469;47.998;7.794;2023-02-11T13:47:03;100799.53;;;9.65;85.10
53908;BME280;40469;47.998;7.794;2023-02-11T13:52:00;100797.47;;;9.50;89.31
53908;BME280;40469;47.998;7.794;2023-02-11T14:05:01;100787.31;;;9.26;80.50
53908;BME280;40469;47.998;7.794;2023-02-11T14:10:48;100776.81;;;8.88;88.80
53908;BME280;40469;47.998;7.794;2023-02-11T14:13:22;100774.34;;;8.94;91.61
53908;BME280;40469;47.998;7.794;2023-02-11T14:15:48;100775.75;;;9.15;87.51
53908;BME280;40469;47.998;7.794;2023-02-11T14:18:56;100764.13;;;9.02;89.84
53908;BME280;40469;47.998;7.794;2023-02-11T14:23:51;100766.22;;;9.52;86.57
53908;BME280;40469;47.998;7.794;2023-02-11T14:28:53;100755.56;;;9.80;91.16
53908;BME280;40469;47.998;7.794;2023-02-11T14:31:27;100763.94;;;9.29;98.54
53908;BME280;40469;47.998;7.794;2023-02-11T14:34:03;100759.59;;;9.29;97.88
53908;BME280;40469;47.998;7.794;2023-02-11T14:36:38;100752.81;;;9.36;100.00
53908;BME280;40469;47.998;7.794;2023-02-11T14:39:27;100758.56;;;9.23;100.00
53908;BME280;40469;47.998;7.794;2023-02-11T14:41:54;100747.75;;;9.44;100.00
53908;BME280;40469;47.998;7.794;2023-02-11T14:44:22;100742.34;;;9.35;100.00
53908;BME280;40469;47.998;7.794;2023-02-11T14:46:48;100751.34;;;9.11;100.00
53908;BME280;40469;47.998;7.794;2023-02-11T14:49:25;100753.63;;;8.99;100.00
53908;BME280;40469;47.998;7.794;2023-02-11T14:51:53;100748.50;;;9.02;100.00
53908;BME280;40469;47.998;7.794;2023-02-11T14:54:19;100756.75;;;9.20;100.00
53908;BME280;40469;47.998;7.794;2023-02-11T14:57:04;100759.66;;;9.33;100.00